»·PEaware :: BOE561 KSFO-KLGB

BOE561 :: KSFO-KLGB

FLIGHT INFORMATION

Flight Status: Arrived
Operator:
Boeing Commercial Airplane Group
More flights by this operator :: More flights under this callsign
Pilot: Ben F. (2808)
Aircraft: BOEING 737-200
(B732)
More flights by this aircraft type
Origin: KSFO San Francisco Intl
United States
Destination: KLGB Long Beach
United States
More flights between these airports :: More routes between these airports
Route: +OFFSH1 SXC
File this flight plan on PilotEdge
Remarks:
Altitude:
(Current/Filed)
31,000ft
Speed:
(Current/Filed)
433kts
Departed: 28-Mar-18 08:57 AM
Arrived: 28-Mar-18 10:00 AM
Distance/Time
Traveled:
307nm/1:03
Distance/Time
To Go:
Arrived

Flight Plot

Page will automatically refresh every two minutes.


Map Options




Map Legend


Flown Route
Filed Route
Departure Airport
Arrival Airport
Navaid (VOR, NDB)
Fix

Horizontal Profiles

Position Reports

Time Latitude Longitude Heading Altitude Ground
Speed
28-Mar-18 08:39 37.627658 -122.384174 294 22ft 0kts
28-Mar-18 08:40 37.627658 -122.384174 294 22ft 0kts
28-Mar-18 08:41 37.627658 -122.384174 294 22ft 0kts
28-Mar-18 08:42 37.627658 -122.384174 294 22ft 0kts
28-Mar-18 08:43 37.627658 -122.384174 294 22ft 0kts
28-Mar-18 08:44 37.627658 -122.384174 294 22ft 0kts
28-Mar-18 08:45 37.627658 -122.384174 294 22ft 0kts
28-Mar-18 08:46 37.627658 -122.384174 294 22ft 0kts
28-Mar-18 08:47 37.627658 -122.384174 294 22ft 0kts
28-Mar-18 08:48 37.627658 -122.384174 294 22ft 0kts
28-Mar-18 08:49 37.627658 -122.384174 294 22ft 0kts
28-Mar-18 08:50 37.627499 -122.385008 218 22ft 7kts
28-Mar-18 08:51 37.625545 -122.382098 118 22ft 21kts
28-Mar-18 08:52 37.622253 -122.374228 118 22ft 24kts
28-Mar-18 08:53 37.618831 -122.366089 118 22ft 26kts
28-Mar-18 08:54 37.616043 -122.359424 118 22ft 25kts
28-Mar-18 08:55 37.614514 -122.356745 195 22ft 0kts
28-Mar-18 08:56 37.614333 -122.359032 298 22ft 44kts
28-Mar-18 08:57 37.631699 -122.402771 293 1562ft 181kts
28-Mar-18 08:58 37.655722 -122.466446 296 4118ft 228kts
28-Mar-18 08:59 37.625456 -122.536469 216 7066ft 279kts
28-Mar-18 09:00 37.560087 -122.593030 216 10304ft 297kts
28-Mar-18 09:01 37.488072 -122.654567 216 12755ft 330kts
28-Mar-18 09:02 37.399255 -122.683758 169 14929ft 363kts
28-Mar-18 09:03 37.298858 -122.658733 168 17184ft 377kts
28-Mar-18 09:04 37.195453 -122.631776 167 19147ft 389kts
28-Mar-18 09:05 37.090871 -122.604521 168 20847ft 401kts
28-Mar-18 09:06 36.980961 -122.575981 167 22405ft 410kts
28-Mar-18 09:07 36.870617 -122.547311 168 23728ft 419kts
28-Mar-18 09:08 36.755636 -122.517526 168 24898ft 428kts
28-Mar-18 09:09 36.639002 -122.487412 168 25944ft 435kts
28-Mar-18 09:10 36.520235 -122.456821 168 26871ft 441kts
28-Mar-18 09:11 36.408704 -122.401288 134 27668ft 443kts
28-Mar-18 09:12 36.327090 -122.290817 128 28381ft 447kts
28-Mar-18 09:13 36.246591 -122.174131 128 29230ft 447kts
28-Mar-18 09:14 36.165855 -122.056841 128 29883ft 451kts
28-Mar-18 09:15 36.084162 -121.938542 128 30566ft 453kts
28-Mar-18 09:16 36.002749 -121.821048 128 31195ft 455kts
28-Mar-18 09:17 35.919623 -121.701500 128 31228ft 470kts
28-Mar-18 09:18 35.834860 -121.580062 128 31219ft 474kts
28-Mar-18 09:19 35.749518 -121.458220 128 31226ft 472kts
28-Mar-18 09:20 35.665569 -121.338778 129 31227ft 471kts
28-Mar-18 09:21 35.582428 -121.220907 129 31228ft 473kts
28-Mar-18 09:22 35.495803 -121.099721 135 31215ft 477kts
28-Mar-18 09:23 35.386967 -121.006618 146 31203ft 482kts
28-Mar-18 09:24 35.274584 -120.918020 146 31194ft 485kts
28-Mar-18 09:25 35.163808 -120.831228 146 31196ft 487kts
28-Mar-18 09:26 35.049955 -120.742086 146 31196ft 487kts
28-Mar-18 09:27 34.936600 -120.653640 146 31204ft 485kts
28-Mar-18 09:28 34.825289 -120.567026 145 31168ft 480kts
28-Mar-18 09:29 34.729377 -120.492602 145 31046ft 478kts
28-Mar-18 09:30 34.619624 -120.407699 145 31053ft 472kts
28-Mar-18 09:31 34.513171 -120.325591 146 31129ft 470kts
28-Mar-18 09:32 34.416306 -120.251109 146 31198ft 470kts
28-Mar-18 09:33 34.306786 -120.167147 146 31209ft 472kts
28-Mar-18 09:34 34.221406 -120.052366 119 31190ft 466kts
28-Mar-18 09:35 34.153321 -119.920459 118 31176ft 466kts
28-Mar-18 09:36 34.087310 -119.790834 118 30081ft 445kts
28-Mar-18 09:37 34.024378 -119.667499 118 27918ft 428kts
28-Mar-18 09:38 33.963299 -119.548195 118 25754ft 413kts
28-Mar-18 09:39 33.904728 -119.434187 118 24181ft 390kts
28-Mar-18 09:40 33.851405 -119.330645 118 21343ft 382kts
28-Mar-18 09:41 33.802723 -119.236403 118 18317ft 365kts
28-Mar-18 09:42 33.750785 -119.136101 118 15429ft 351kts
28-Mar-18 09:43 33.700742 -119.039746 118 13590ft 338kts
28-Mar-18 09:44 33.651814 -118.945770 118 11745ft 329kts
28-Mar-18 09:45 33.604413 -118.854931 119 10979ft 320kts
28-Mar-18 09:46 33.578833 -118.759731 86 10447ft 299kts
28-Mar-18 09:47 33.578412 -118.666614 86 9092ft 291kts
28-Mar-18 09:48 33.579137 -118.575674 86 7745ft 287kts
28-Mar-18 09:49 33.581740 -118.481571 86 6363ft 283kts
28-Mar-18 09:50 33.586359 -118.394419 86 4991ft 240kts
28-Mar-18 09:51 33.589717 -118.316828 86 3983ft 241kts
28-Mar-18 09:52 33.592006 -118.242459 86 3971ft 244kts
28-Mar-18 09:53 33.601265 -118.164346 50 3799ft 243kts
28-Mar-18 09:54 33.649536 -118.111811 41 2955ft 229kts
28-Mar-18 09:55 33.691194 -118.067924 41 2601ft 199kts
28-Mar-18 09:56 33.733391 -118.075224 320 1942ft 171kts
28-Mar-18 09:57 33.772140 -118.103004 329 1302ft 135kts
28-Mar-18 09:58 33.800040 -118.129848 317 363ft 132kts
28-Mar-18 09:59 33.820760 -118.154930 318 69ft 20kts
28-Mar-18 10:00 33.821666 -118.154365 88 69ft 14kts
28-Mar-18 10:01 33.821699 -118.150597 90 69ft 10kts
28-Mar-18 10:02 33.820994 -118.146983 179 69ft 16kts
28-Mar-18 10:03 33.818117 -118.146199 89 69ft 5kts
28-Mar-18 10:04 33.818118 -118.146097 89 69ft 0kts
28-Mar-18 10:05 33.818118 -118.146097 89 69ft 0kts
28-Mar-18 10:06 33.818118 -118.146097 89 69ft 0kts
28-Mar-18 10:07 33.813584 -118.146242 315 77ft 128kts

Navigation Log

Ident Type
1. KSFO Airport
2. MCKEY Fix
3. DAISY Fix
4. SXC Navaid
5. KLGB Airport